createdAt,value
2018-12-11T00:00:21.060Z,20.13
2018-12-11T00:02:52.892Z,27.13
2018-12-11T00:05:25.587Z,19.40
2018-12-11T00:07:57.084Z,23.60
2018-12-11T00:10:31.902Z,19.07
2018-12-11T00:13:03.290Z,21.13
2018-12-11T00:15:36.650Z,104.17
2018-12-11T00:18:07.783Z,24.50
2018-12-11T00:20:41.949Z,28.30
2018-12-11T00:23:13.426Z,15.30
2018-12-11T00:25:46.320Z,20.20
2018-12-11T00:28:21.904Z,23.63
2018-12-11T00:30:56.502Z,23.43
2018-12-11T00:33:34.841Z,26.07
2018-12-11T00:36:07.946Z,23.00
2018-12-11T00:38:43.332Z,24.90
2018-12-11T00:41:15.120Z,26.00
2018-12-11T00:43:46.857Z,23.90
2018-12-11T00:46:21.979Z,26.00
2018-12-11T00:48:54.290Z,28.87
2018-12-11T00:51:27.117Z,25.47
2018-12-11T00:53:58.299Z,24.97
2018-12-11T00:56:30.329Z,38.23
2018-12-11T00:59:01.700Z,26.70
2018-12-11T01:01:33.821Z,22.03
2018-12-11T01:04:07.590Z,28.37
2018-12-11T01:06:38.705Z,55.43
2018-12-11T01:09:11.903Z,20.07
2018-12-11T01:11:43.377Z,21.10
2018-12-11T01:14:14.700Z,27.23
2018-12-11T01:16:45.816Z,30.07
2018-12-11T01:19:18.453Z,30.60
2018-12-11T01:21:49.504Z,20.73
2018-12-11T01:24:21.787Z,23.67
2018-12-11T01:26:53.261Z,26.50
2018-12-11T01:29:25.621Z,23.40
2018-12-11T01:31:56.712Z,20.07
2018-12-11T01:34:27.881Z,21.03
2018-12-11T01:37:02.686Z,20.03
2018-12-11T01:39:35.451Z,18.07
2018-12-11T01:42:08.053Z,22.00
2018-12-11T01:44:39.505Z,19.73
2018-12-11T01:47:10.691Z,21.87
2018-12-11T01:49:42.268Z,21.17
2018-12-11T01:52:13.396Z,21.07
2018-12-11T01:54:44.834Z,26.43
2018-12-11T01:57:15.911Z,18.93
2018-12-11T01:59:48.141Z,19.90
2018-12-11T02:02:20.326Z,16.23
2018-12-11T02:04:53.211Z,20.97
2018-12-11T02:07:24.312Z,17.03
2018-12-11T02:09:55.620Z,22.77
2018-12-11T02:12:26.756Z,21.17
2018-12-11T02:14:58.941Z,18.67
2018-12-11T02:17:30.294Z,22.00
2018-12-11T02:20:03.581Z,18.10
2018-12-11T02:22:35.661Z,19.33
2018-12-11T02:25:07.402Z,21.93
2018-12-11T02:27:39.790Z,21.70
2018-12-11T02:30:11.878Z,18.17
2018-12-11T02:32:45.379Z,24.73
2018-12-11T02:35:18.051Z,18.50
2018-12-11T02:37:50.938Z,22.23
2018-12-11T02:40:31.567Z,25.27
2018-12-11T02:43:04.904Z,22.37
2018-12-11T02:45:37.842Z,19.83
2018-12-11T02:48:11.503Z,19.53
2018-12-11T02:50:43.963Z,19.63
2018-12-11T02:53:16.945Z,23.97
2018-12-11T02:55:48.010Z,26.63
2018-12-11T02:58:20.969Z,22.00
2018-12-11T03:00:52.765Z,19.93
2018-12-11T03:03:28.290Z,19.17
2018-12-11T03:06:01.895Z,27.13
2018-12-11T03:08:33.326Z,20.13
2018-12-11T03:11:06.864Z,18.40
2018-12-11T03:13:39.055Z,20.23
2018-12-11T03:16:12.599Z,26.30
2018-12-11T03:18:43.776Z,26.00
2018-12-11T03:21:16.369Z,24.00
2018-12-11T03:23:47.566Z,19.33
2018-12-11T03:26:20.108Z,20.33
2018-12-11T03:28:52.426Z,16.40
2018-12-11T03:31:27.767Z,21.13
2018-12-11T03:34:00.838Z,22.00
2018-12-11T03:36:34.704Z,19.70
2018-12-11T03:39:09.026Z,20.70
2018-12-11T03:41:41.365Z,18.80
2018-12-11T03:44:15.071Z,15.07
2018-12-11T03:46:46.230Z,21.67
2018-12-11T03:49:17.781Z,70.13
2018-12-11T03:51:48.931Z,15.47
2018-12-11T03:54:20.069Z,16.33
2018-12-11T03:56:51.194Z,20.33
2018-12-11T03:59:23.187Z,17.07
2018-12-11T04:01:59.952Z,18.40
2018-12-11T04:04:31.106Z,15.47
2018-12-11T04:07:02.646Z,23.13
2018-12-11T04:09:34.743Z,26.20
2018-12-11T04:12:06.325Z,24.80
2018-12-11T04:14:41.456Z,13.20
2018-12-11T04:17:14.986Z,19.30
2018-12-11T04:19:46.083Z,18.17
2018-12-11T04:22:18.039Z,18.27
2018-12-11T04:24:49.408Z,17.70
2018-12-11T04:27:22.151Z,16.23
2018-12-11T04:29:54.446Z,16.33
2018-12-11T04:32:25.574Z,12.43
2018-12-11T04:34:56.636Z,14.90
2018-12-11T04:37:27.852Z,22.27
2018-12-11T04:40:06.039Z,20.20
2018-12-11T04:42:39.423Z,10.27
2018-12-11T04:45:10.712Z,17.50
2018-12-11T04:47:42.944Z,18.77
2018-12-11T04:50:13.977Z,15.73
2018-12-11T04:52:46.676Z,15.50
2018-12-11T04:55:17.818Z,17.57
2018-12-11T04:57:50.116Z,15.13
2018-12-11T05:00:21.780Z,18.73
2018-12-11T05:02:54.234Z,16.63
2018-12-11T05:05:27.175Z,16.30
2018-12-11T05:07:58.382Z,14.83
2018-12-11T05:10:29.719Z,19.83
2018-12-11T05:13:02.828Z,18.63
2018-12-11T05:15:34.426Z,16.77
2018-12-11T05:18:08.457Z,14.97
2018-12-11T05:23:39.818Z,11.10
2018-12-11T05:26:12.837Z,19.23
2018-12-11T05:28:43.811Z,15.83
2018-12-11T05:31:14.131Z,11.13
2018-12-11T05:33:44.790Z,13.90
2018-12-11T05:36:14.915Z,14.20
2018-12-11T05:38:49.369Z,10.47
2018-12-11T05:41:19.431Z,14.23
2018-12-11T05:43:52.553Z,13.83
2018-12-11T05:46:36.333Z,14.13
2018-12-11T05:49:08.484Z,17.20
2018-12-11T05:51:40.852Z,15.03
2018-12-11T05:54:11.878Z,12.40
2018-12-11T05:56:43.326Z,12.50
2018-12-11T05:59:14.773Z,17.73
2018-12-11T06:01:45.098Z,14.80
2018-12-11T06:04:15.744Z,15.97
2018-12-11T06:06:45.951Z,14.07
2018-12-11T06:09:16.176Z,12.30
2018-12-11T06:11:46.218Z,11.53
2018-12-11T06:14:16.576Z,9.83
2018-12-11T06:16:46.835Z,15.13
2018-12-11T06:19:17.392Z,11.50
2018-12-11T06:21:47.501Z,11.40
2018-12-11T06:24:26.443Z,11.13
2018-12-11T06:26:57.382Z,14.30
2018-12-11T06:29:29.060Z,9.90
2018-12-11T06:31:59.229Z,12.53
2018-12-11T06:34:29.636Z,8.30
2018-12-11T06:36:59.729Z,9.63
2018-12-11T06:39:30.411Z,13.90
2018-12-11T06:42:00.512Z,12.47
2018-12-11T06:44:30.948Z,11.37
2018-12-11T06:47:08.708Z,10.83
2018-12-11T06:49:41.707Z,13.50
2018-12-11T06:52:13.318Z,12.27
2018-12-11T06:54:45.424Z,10.83
2018-12-11T06:57:15.784Z,11.63
2018-12-11T06:59:46.131Z,12.70
2018-12-11T07:02:16.319Z,10.27
2018-12-11T07:04:46.542Z,14.83
2018-12-11T07:07:18.240Z,13.23
2018-12-11T07:09:48.424Z,10.10
2018-12-11T07:12:19.163Z,10.13
2018-12-11T07:14:49.296Z,10.57
2018-12-11T07:17:19.387Z,6.40
2018-12-11T07:19:49.463Z,7.73
2018-12-11T07:22:19.536Z,9.90
2018-12-11T07:24:49.638Z,7.97
2018-12-11T07:27:19.714Z,9.17
2018-12-11T07:29:51.078Z,10.30
2018-12-11T07:32:21.779Z,14.70
2018-12-11T07:34:58.801Z,8.70
2018-12-11T07:37:29.035Z,8.50
2018-12-11T07:39:59.158Z,8.40
2018-12-11T07:42:31.171Z,7.73
2018-12-11T07:45:03.497Z,8.63
2018-12-11T07:47:38.328Z,10.80
2018-12-11T07:50:08.760Z,7.00
2018-12-11T07:52:38.798Z,8.13
2018-12-11T07:55:08.957Z,10.30
2018-12-11T07:57:41.354Z,13.80
2018-12-11T08:00:12.845Z,13.50
2018-12-11T08:02:43.354Z,9.47
2018-12-11T08:05:13.800Z,10.20
2018-12-11T08:07:44.226Z,5.77
2018-12-11T08:10:14.566Z,8.27
2018-12-11T08:12:44.975Z,10.67
2018-12-11T08:15:15.445Z,8.97
2018-12-11T08:17:45.925Z,10.40
2018-12-11T08:20:16.405Z,8.33
2018-12-11T08:22:46.808Z,8.43
2018-12-11T08:25:17.237Z,10.07
2018-12-11T08:27:47.486Z,8.77
2018-12-11T08:30:17.837Z,8.17
2018-12-11T08:32:48.367Z,5.13
2018-12-11T08:35:18.734Z,7.90
2018-12-11T08:37:48.949Z,8.00
2018-12-11T08:40:19.570Z,8.40
2018-12-11T08:42:50.075Z,7.30
2018-12-11T08:45:20.391Z,6.83
2018-12-11T08:47:50.819Z,6.27
2018-12-11T08:50:21.245Z,7.90
2018-12-11T08:52:51.685Z,6.97
2018-12-11T08:55:21.992Z,6.00
2018-12-11T08:57:52.279Z,6.07
2018-12-11T09:00:22.860Z,7.03
2018-12-11T09:02:53.218Z,10.30
2018-12-11T09:05:23.686Z,7.87
2018-12-11T09:07:54.157Z,9.40
2018-12-11T09:10:24.801Z,7.93
2018-12-11T09:12:55.166Z,5.50
2018-12-11T09:15:25.575Z,8.20
2018-12-11T09:17:56.036Z,7.30
2018-12-11T09:20:26.432Z,8.00
2018-12-11T09:22:56.899Z,9.23
2018-12-11T09:25:27.299Z,6.20
2018-12-11T09:27:57.666Z,7.70
2018-12-11T09:30:28.036Z,6.00
2018-12-11T09:32:58.635Z,4.77
2018-12-11T09:35:29.100Z,4.97
2018-12-11T09:37:59.464Z,9.30
2018-12-11T09:40:29.807Z,5.30
2018-12-11T09:43:00.299Z,4.70
2018-12-11T09:45:30.603Z,6.10
2018-12-11T09:48:01.030Z,5.83
2018-12-11T09:50:31.510Z,7.03
2018-12-11T09:53:01.876Z,5.30
2018-12-11T09:55:32.293Z,7.00
2018-12-11T09:58:02.893Z,5.33
2018-12-11T10:00:33.344Z,4.93
2018-12-11T10:03:03.927Z,4.57
2018-12-11T10:05:34.328Z,7.70
2018-12-11T10:08:04.762Z,5.90
2018-12-11T10:10:35.168Z,6.93
2018-12-11T10:13:05.620Z,7.07
2018-12-11T10:15:35.912Z,6.60
2018-12-11T10:18:06.263Z,4.60
2018-12-11T10:20:36.803Z,7.30
2018-12-11T10:23:07.766Z,4.83
2018-12-11T10:25:38.017Z,7.10
2018-12-11T10:28:08.502Z,7.13
2018-12-11T10:30:44.045Z,7.70
2018-12-11T10:33:14.436Z,6.07
2018-12-11T10:35:44.984Z,4.17
2018-12-11T10:38:15.543Z,2.57
2018-12-11T10:40:45.967Z,3.93
2018-12-11T10:43:16.391Z,3.97
2018-12-11T10:45:46.630Z,7.13
2018-12-11T10:48:17.144Z,6.27
2018-12-11T10:50:47.424Z,4.73
2018-12-11T10:53:18.006Z,6.10
2018-12-11T10:55:48.531Z,5.00
2018-12-11T10:58:19.187Z,7.37
2018-12-11T11:00:54.787Z,4.97
2018-12-11T11:03:25.337Z,2.63
2018-12-11T11:05:55.734Z,6.40
2018-12-11T11:08:26.357Z,6.20
2018-12-11T11:10:56.775Z,2.73
2018-12-11T11:13:27.365Z,10.33
2018-12-11T11:15:57.803Z,6.47
2018-12-11T11:18:28.422Z,4.67
2018-12-11T11:20:58.831Z,5.87
2018-12-11T11:23:29.229Z,3.67
2018-12-11T11:25:59.765Z,3.27
2018-12-11T11:28:30.233Z,3.50
2018-12-11T11:31:00.790Z,8.13
2018-12-11T11:33:31.339Z,7.20
2018-12-11T11:36:01.755Z,7.40
2018-12-11T11:38:32.270Z,6.60
2018-12-11T11:41:02.617Z,5.03
2018-12-11T11:43:33.060Z,5.50
2018-12-11T11:46:03.458Z,2.70
2018-12-11T11:48:33.876Z,5.07
2018-12-11T11:51:04.311Z,4.67
2018-12-11T11:53:34.735Z,6.17
2018-12-11T11:56:05.333Z,6.53
2018-12-11T11:58:35.838Z,4.40
2018-12-11T12:01:06.205Z,4.63
2018-12-11T12:03:36.534Z,3.77
2018-12-11T12:06:06.974Z,5.40
2018-12-11T12:08:37.347Z,4.57
2018-12-11T12:11:07.836Z,5.80
2018-12-11T12:13:38.242Z,7.03
2018-12-11T12:16:08.779Z,7.00
2018-12-11T12:18:39.059Z,4.07
2018-12-11T12:21:09.576Z,6.93
2018-12-11T12:23:39.955Z,6.10
2018-12-11T12:26:10.393Z,6.33
2018-12-11T12:28:40.806Z,4.13
2018-12-11T12:31:11.811Z,5.90
2018-12-11T12:33:42.311Z,5.20
2018-12-11T12:36:12.606Z,6.23
2018-12-11T12:38:43.140Z,4.70
2018-12-11T12:41:13.608Z,5.90
2018-12-11T12:43:43.973Z,4.03
2018-12-11T12:46:14.540Z,6.33
2018-12-11T12:48:44.823Z,5.07
2018-12-11T12:51:15.201Z,4.10
2018-12-11T12:53:45.665Z,4.83
2018-12-11T12:56:16.150Z,4.87
2018-12-11T12:58:46.599Z,5.83
2018-12-11T13:01:17.119Z,4.50
2018-12-11T13:03:48.130Z,4.20
2018-12-11T13:06:18.527Z,5.43
2018-12-11T13:08:48.985Z,3.13
2018-12-11T13:11:19.540Z,4.80
2018-12-11T13:13:50.052Z,5.27
2018-12-11T13:16:20.576Z,6.00
2018-12-11T13:18:52.159Z,4.63
2018-12-11T13:21:23.678Z,5.53
2018-12-11T13:23:55.070Z,5.37
2018-12-11T13:26:26.909Z,4.33
2018-12-11T13:28:57.422Z,6.87
2018-12-11T13:31:27.954Z,3.40
2018-12-11T13:33:58.457Z,5.03
2018-12-11T13:36:31.957Z,8.53
2018-12-11T13:39:01.559Z,6.33
2018-12-11T13:41:32.205Z,4.80
2018-12-11T13:44:03.063Z,9.03
2018-12-11T13:46:34.272Z,4.47
2018-12-11T13:49:04.781Z,4.63
2018-12-11T13:51:35.364Z,4.50
2018-12-11T13:54:05.947Z,4.10
2018-12-11T13:56:36.431Z,3.70
2018-12-11T13:59:06.449Z,4.57
2018-12-11T14:01:36.510Z,5.00
2018-12-11T14:04:06.707Z,5.67
2018-12-11T14:06:36.818Z,4.43
2018-12-11T14:09:14.005Z,3.47
2018-12-11T14:11:44.009Z,5.47
2018-12-11T14:14:14.069Z,4.47
2018-12-11T14:16:44.116Z,3.53
2018-12-11T14:19:14.146Z,7.40
2018-12-11T14:21:44.264Z,5.53
2018-12-11T14:24:14.249Z,3.60
2018-12-11T14:26:44.350Z,4.17
2018-12-11T14:29:14.330Z,5.20
2018-12-11T14:31:44.705Z,7.87
2018-12-11T14:34:14.708Z,6.03
2018-12-11T14:36:44.781Z,5.07
2018-12-11T14:39:14.949Z,5.17
2018-12-11T14:41:44.986Z,7.40
2018-12-11T14:44:14.969Z,5.63
2018-12-11T14:46:45.478Z,4.57
2018-12-11T14:49:15.464Z,5.83
2018-12-11T14:51:45.483Z,5.87
2018-12-11T14:54:15.490Z,4.80
2018-12-11T14:56:45.497Z,5.37
2018-12-11T14:59:15.488Z,6.30
2018-12-11T15:01:45.516Z,4.30
2018-12-11T15:04:15.466Z,6.43
2018-12-11T15:06:45.486Z,6.00
2018-12-11T15:09:20.764Z,5.13
2018-12-11T15:11:50.757Z,5.97
2018-12-11T15:14:20.772Z,7.47
2018-12-11T15:16:50.733Z,6.77
2018-12-11T15:19:20.692Z,6.27
2018-12-11T15:21:50.710Z,5.87
2018-12-11T15:24:20.673Z,6.80
2018-12-11T15:26:50.644Z,8.57
2018-12-11T15:29:20.708Z,4.40
2018-12-11T15:31:50.694Z,5.50
2018-12-11T15:34:20.691Z,8.57
2018-12-11T15:36:50.680Z,4.30
2018-12-11T15:39:20.633Z,6.80
2018-12-11T15:41:50.697Z,5.33
2018-12-11T15:44:20.703Z,4.23
2018-12-11T15:46:50.790Z,5.37
2018-12-11T15:49:20.827Z,5.30
2018-12-11T15:51:52.336Z,7.00
2018-12-11T15:54:22.766Z,4.57
2018-12-11T15:56:53.033Z,24.47
2018-12-11T15:59:23.087Z,5.10
2018-12-11T16:01:53.175Z,5.50
2018-12-11T16:04:23.207Z,4.13
2018-12-11T16:06:53.233Z,7.70
2018-12-11T16:09:27.317Z,4.97
2018-12-11T16:11:57.284Z,6.47
2018-12-11T16:14:27.293Z,7.43
2018-12-11T16:16:57.321Z,5.73
2018-12-11T16:19:27.350Z,44.50
2018-12-11T16:21:57.615Z,7.83
2018-12-11T16:24:27.644Z,6.73
2018-12-11T16:26:57.632Z,5.73
2018-12-11T16:29:27.688Z,8.87
2018-12-11T16:31:57.708Z,8.13
2018-12-11T16:34:27.871Z,5.33
2018-12-11T16:36:57.862Z,6.23
2018-12-11T16:39:27.925Z,8.90
2018-12-11T16:41:57.965Z,4.83
2018-12-11T16:44:28.024Z,7.13
2018-12-11T16:46:58.077Z,5.03
2018-12-11T16:49:28.378Z,5.33
2018-12-11T16:51:58.337Z,7.40
2018-12-11T16:54:28.380Z,5.80
2018-12-11T16:56:58.394Z,6.50
2018-12-11T16:59:28.393Z,5.00
2018-12-11T17:01:58.412Z,6.27
2018-12-11T17:04:28.377Z,5.40
2018-12-11T17:06:58.329Z,5.57
2018-12-11T17:09:28.435Z,11.37
2018-12-11T17:11:58.772Z,7.03
2018-12-11T17:14:28.990Z,4.80
2018-12-11T17:16:58.964Z,9.07
2018-12-11T17:19:28.958Z,6.53
2018-12-11T17:21:59.014Z,8.90
2018-12-11T17:24:29.000Z,4.80
2018-12-11T17:26:58.980Z,9.47
2018-12-11T17:29:28.999Z,7.40
2018-12-11T17:31:58.936Z,5.97
2018-12-11T17:34:28.960Z,5.07
2018-12-11T17:36:59.001Z,4.53
2018-12-11T17:39:29.008Z,5.23
2018-12-11T17:41:59.035Z,6.00
2018-12-11T17:44:29.024Z,7.77
2018-12-11T17:46:59.082Z,6.70
2018-12-11T17:49:29.081Z,6.17
2018-12-11T17:51:59.113Z,4.93
2018-12-11T17:54:29.110Z,5.90
2018-12-11T17:56:59.312Z,9.17
2018-12-11T17:59:29.306Z,5.30
2018-12-11T18:02:04.300Z,5.80
2018-12-11T18:04:34.273Z,3.60
2018-12-11T18:07:04.316Z,4.30
2018-12-11T18:09:34.264Z,5.00
2018-12-11T18:12:04.376Z,12.83
2018-12-11T18:14:34.413Z,4.27
2018-12-11T18:17:09.808Z,3.87
2018-12-11T18:19:39.795Z,6.03
2018-12-11T18:22:09.834Z,8.13
2018-12-11T18:24:39.897Z,4.20
2018-12-11T18:27:10.007Z,6.23
2018-12-11T18:29:40.002Z,4.27
2018-12-11T18:32:10.623Z,6.17
2018-12-11T18:34:47.376Z,6.43
2018-12-11T18:37:17.477Z,4.90
2018-12-11T18:39:47.590Z,7.30
2018-12-11T18:42:17.842Z,6.90
2018-12-11T18:44:48.794Z,4.77
2018-12-11T18:47:18.858Z,4.77
2018-12-11T18:49:48.825Z,5.77
2018-12-11T18:52:18.908Z,5.33
2018-12-11T18:54:48.961Z,3.90
2018-12-11T18:57:19.014Z,3.53
2018-12-11T18:59:48.997Z,5.87
2018-12-11T19:02:19.026Z,6.40
2018-12-11T19:04:49.052Z,5.70
2018-12-11T19:07:19.217Z,5.47
2018-12-11T19:09:49.297Z,4.73
2018-12-11T19:12:19.513Z,7.00
2018-12-11T19:14:49.637Z,7.53
2018-12-11T19:17:19.865Z,4.20
2018-12-11T19:19:49.837Z,5.60
2018-12-11T19:22:19.865Z,4.87
2018-12-11T19:24:56.743Z,5.57
2018-12-11T19:27:26.786Z,4.80
2018-12-11T19:29:56.795Z,6.10
2018-12-11T19:32:26.934Z,5.17
2018-12-11T19:34:56.897Z,4.17
2018-12-11T19:37:27.194Z,6.13
2018-12-11T19:40:02.090Z,3.93
2018-12-11T19:42:29.389Z,6.63
2018-12-11T19:44:59.380Z,4.47
2018-12-11T19:47:29.402Z,3.97
2018-12-11T19:49:59.389Z,3.80
2018-12-11T19:52:29.378Z,5.63
2018-12-11T19:54:59.446Z,7.17
2018-12-11T19:57:29.507Z,6.23
2018-12-11T19:59:59.494Z,5.17
2018-12-11T20:02:29.482Z,4.47
2018-12-11T20:04:59.598Z,3.27
2018-12-11T20:07:31.703Z,4.07
2018-12-11T20:10:07.011Z,5.63
2018-12-11T20:12:39.323Z,3.67
2018-12-11T20:15:11.757Z,5.43
2018-12-11T20:17:42.793Z,6.03
2018-12-11T20:20:28.597Z,5.33
2018-12-11T20:22:59.468Z,6.67
2018-12-11T20:25:30.362Z,5.10
2018-12-11T20:28:01.265Z,6.77
2018-12-11T20:30:34.071Z,7.60
2018-12-11T20:33:07.412Z,7.07
2018-12-11T20:35:37.884Z,4.47
2018-12-11T20:38:09.500Z,6.50
2018-12-11T20:40:44.899Z,4.07
2018-12-11T20:43:19.003Z,6.47
2018-12-11T20:45:53.876Z,4.37
2018-12-11T20:48:27.256Z,7.40
2018-12-11T20:50:59.966Z,4.90
2018-12-11T20:53:31.325Z,5.33
2018-12-11T20:56:02.885Z,7.13
2018-12-11T20:58:33.896Z,4.30
2018-12-11T21:01:06.183Z,6.67
2018-12-11T21:03:37.572Z,4.83
2018-12-11T21:06:08.353Z,5.23
2018-12-11T21:08:39.297Z,4.73
2018-12-11T21:11:10.387Z,4.47
2018-12-11T21:13:41.260Z,4.33
2018-12-11T21:16:12.279Z,4.67
2018-12-11T21:18:44.099Z,5.13
2018-12-11T21:21:15.316Z,3.37
2018-12-11T21:23:46.337Z,3.27
2018-12-11T21:26:17.302Z,3.17
2018-12-11T21:28:48.075Z,2.70
2018-12-11T21:31:28.080Z,5.07
2018-12-11T21:34:09.898Z,3.17
2018-12-11T21:36:45.103Z,6.53
2018-12-11T21:39:16.143Z,4.60
2018-12-11T21:41:47.173Z,3.73
2018-12-11T21:44:17.845Z,2.83
2018-12-11T21:46:50.648Z,4.03
2018-12-11T21:49:21.871Z,3.63
2018-12-11T21:51:55.615Z,5.73
2018-12-11T21:54:27.646Z,3.40
2018-12-11T21:56:58.691Z,3.60
2018-12-11T21:59:29.453Z,3.37
2018-12-11T22:02:01.265Z,6.10
2018-12-11T22:04:32.868Z,3.67
2018-12-11T22:07:05.930Z,3.30
2018-12-11T22:09:42.629Z,4.10
2018-12-11T22:12:17.516Z,3.90
2018-12-11T22:14:51.942Z,4.80
2018-12-11T22:17:28.540Z,5.63
2018-12-11T22:20:03.300Z,4.87
2018-12-11T22:22:34.418Z,3.43
2018-12-11T22:25:05.608Z,3.43
2018-12-11T22:27:36.573Z,4.00
2018-12-11T22:30:07.834Z,3.60
2018-12-11T22:32:38.985Z,3.77
2018-12-11T22:35:09.969Z,4.93
2018-12-11T22:37:41.012Z,2.93
2018-12-11T22:40:11.977Z,6.17
2018-12-11T22:42:43.090Z,4.27
2018-12-11T22:45:14.023Z,3.67
2018-12-11T22:47:45.044Z,4.27
2018-12-11T22:50:16.018Z,4.53
2018-12-11T22:52:48.048Z,5.00
2018-12-11T22:55:19.305Z,3.73
2018-12-11T22:57:50.526Z,3.33
2018-12-11T23:00:21.651Z,3.97
2018-12-11T23:02:52.817Z,4.70
2018-12-11T23:05:23.863Z,6.20
2018-12-11T23:07:54.972Z,3.43
2018-12-11T23:10:26.153Z,3.93
2018-12-11T23:12:57.210Z,5.33
2018-12-11T23:15:28.222Z,4.60
2018-12-11T23:17:59.317Z,3.03
2018-12-11T23:20:30.324Z,4.17
2018-12-11T23:23:01.423Z,3.17
2018-12-11T23:25:32.458Z,5.70
2018-12-11T23:28:03.537Z,3.80
2018-12-11T23:30:34.543Z,4.30
2018-12-11T23:33:05.614Z,4.00
2018-12-11T23:35:36.691Z,4.03
2018-12-11T23:38:07.740Z,4.17
2018-12-11T23:40:38.768Z,3.70
2018-12-11T23:43:09.930Z,3.83
2018-12-11T23:45:40.944Z,3.17
2018-12-11T23:48:12.034Z,5.77
2018-12-11T23:50:42.989Z,4.17
2018-12-11T23:53:14.047Z,5.37
2018-12-11T23:55:45.044Z,6.67
2018-12-11T23:58:16.073Z,4.77
